createdAt,value
2018-03-06T00:02:15.926Z,59.93
2018-03-06T00:04:45.114Z,58.87
2018-03-06T00:07:13.542Z,60.87
2018-03-06T00:09:41.937Z,65.87
2018-03-06T00:12:10.436Z,58.97
2018-03-06T00:14:38.879Z,62.97
2018-03-06T00:17:07.296Z,66.03
2018-03-06T00:19:35.700Z,62.57
2018-03-06T00:22:04.149Z,64.67
2018-03-06T00:24:32.553Z,61.50
2018-03-06T00:27:00.955Z,66.33
2018-03-06T00:29:30.897Z,65.70
2018-03-06T00:31:59.320Z,66.50
2018-03-06T00:34:27.722Z,67.67
2018-03-06T00:36:56.994Z,64.83
2018-03-06T00:39:25.505Z,67.97
2018-03-06T00:41:53.887Z,62.67
2018-03-06T00:44:23.125Z,63.27
2018-03-06T00:46:51.502Z,65.53
2018-03-06T00:49:19.918Z,63.93
2018-03-06T00:51:48.364Z,63.83
2018-03-06T00:54:16.796Z,60.90
2018-03-06T00:56:45.965Z,65.83
2018-03-06T00:59:14.413Z,62.43
2018-03-06T01:01:42.825Z,64.90
2018-03-06T01:04:11.250Z,65.80
2018-03-06T01:06:39.687Z,68.23
2018-03-06T01:09:08.092Z,70.30
2018-03-06T01:11:37.277Z,68.07
2018-03-06T01:14:05.713Z,71.37
2018-03-06T01:16:34.106Z,65.33
2018-03-06T01:19:02.528Z,71.60
2018-03-06T01:21:31.713Z,65.47
2018-03-06T01:24:00.167Z,65.17
2018-03-06T01:26:28.611Z,65.37
2018-03-06T01:28:57.016Z,66.87
2018-03-06T01:31:25.435Z,67.47
2018-03-06T01:33:54.660Z,65.00
2018-03-06T01:36:23.054Z,63.17
2018-03-06T01:38:51.460Z,62.67
2018-03-06T01:41:19.918Z,65.33
2018-03-06T01:43:48.329Z,59.70
2018-03-06T01:46:16.737Z,67.43
2018-03-06T01:48:45.957Z,63.80
2018-03-06T01:51:14.386Z,64.87
2018-03-06T01:53:42.799Z,61.43
2018-03-06T01:56:12.066Z,60.90
2018-03-06T01:58:40.483Z,63.13
2018-03-06T02:01:08.891Z,58.00
2018-03-06T02:03:37.330Z,61.93
2018-03-06T02:06:06.502Z,65.37
2018-03-06T02:08:34.947Z,63.57
2018-03-06T02:11:03.360Z,64.00
2018-03-06T02:13:31.802Z,64.70
2018-03-06T02:16:00.222Z,64.50
2018-03-06T02:18:28.637Z,63.53
2018-03-06T02:20:57.077Z,63.20
2018-03-06T02:23:25.511Z,65.40
2018-03-06T02:25:53.942Z,65.37
2018-03-06T02:28:22.464Z,61.60
2018-03-06T02:30:50.982Z,64.40
2018-03-06T02:33:19.456Z,63.93
2018-03-06T02:35:47.907Z,60.87
2018-03-06T02:38:16.309Z,60.97
2018-03-06T02:40:44.725Z,60.80
2018-03-06T02:43:13.259Z,62.53
2018-03-06T02:45:41.693Z,60.53
2018-03-06T02:48:10.109Z,66.27
2018-03-06T02:50:38.540Z,61.60
2018-03-06T02:53:06.962Z,61.23
2018-03-06T02:55:35.389Z,64.03
2018-03-06T02:58:03.842Z,62.13
2018-03-06T03:00:32.294Z,63.73
2018-03-06T03:03:00.712Z,61.27
2018-03-06T03:05:29.151Z,60.67
2018-03-06T03:07:57.585Z,64.23
2018-03-06T03:10:26.011Z,62.77
2018-03-06T03:12:55.228Z,62.03
2018-03-06T03:15:23.648Z,59.47
2018-03-06T03:17:52.071Z,63.67
2018-03-06T03:20:20.531Z,60.97
2018-03-06T03:22:49.738Z,62.10
2018-03-06T03:25:18.937Z,60.53
2018-03-06T03:27:48.151Z,64.07
2018-03-06T03:30:16.621Z,55.77
2018-03-06T03:32:45.831Z,62.13
2018-03-06T03:35:14.241Z,58.47
2018-03-06T03:37:42.690Z,62.77
2018-03-06T03:40:11.112Z,57.30
2018-03-06T03:42:39.541Z,61.40
2018-03-06T03:45:08.839Z,59.10
2018-03-06T03:47:37.247Z,55.50
2018-03-06T03:50:05.667Z,58.00
2018-03-06T03:52:34.119Z,59.00
2018-03-06T03:55:02.538Z,55.37
2018-03-06T03:57:31.732Z,58.47
2018-03-06T04:00:00.190Z,61.63
2018-03-06T04:02:28.687Z,62.37
2018-03-06T04:04:57.133Z,57.80
2018-03-06T04:07:25.553Z,60.90
2018-03-06T04:09:53.961Z,59.37
2018-03-06T04:12:22.409Z,59.27
2018-03-06T04:14:51.627Z,57.67
2018-03-06T04:17:20.814Z,59.67
2018-03-06T04:19:49.996Z,59.53
2018-03-06T04:22:18.442Z,56.67
2018-03-06T04:27:44.134Z,58.37
2018-03-06T04:30:13.343Z,59.63
2018-03-06T04:32:41.784Z,57.17
2018-03-06T04:35:10.256Z,57.83
2018-03-06T04:37:38.675Z,58.27
2018-03-06T04:40:07.856Z,59.13
2018-03-06T04:42:37.100Z,57.17
2018-03-06T04:45:05.510Z,60.50
2018-03-06T04:47:33.930Z,60.00
2018-03-06T04:50:03.173Z,61.17
2018-03-06T04:52:32.373Z,62.50
2018-03-06T04:55:00.790Z,57.60
2018-03-06T04:57:30.005Z,59.00
2018-03-06T04:59:59.209Z,59.53
2018-03-06T05:02:28.393Z,55.20
2018-03-06T05:04:57.625Z,58.47
2018-03-06T05:07:26.054Z,55.50
2018-03-06T05:09:55.253Z,61.10
2018-03-06T05:12:23.685Z,58.00
2018-03-06T05:14:52.155Z,57.17
2018-03-06T05:17:20.716Z,57.53
2018-03-06T05:19:49.182Z,59.27
2018-03-06T05:22:17.653Z,57.60
2018-03-06T05:24:46.067Z,55.83
2018-03-06T05:27:14.538Z,57.03
2018-03-06T05:29:43.738Z,61.20
2018-03-06T05:32:12.181Z,60.70
2018-03-06T05:34:40.661Z,60.83
2018-03-06T05:37:09.083Z,57.07
2018-03-06T05:39:37.494Z,59.53
2018-03-06T05:42:05.933Z,57.70
2018-03-06T05:44:35.138Z,61.33
2018-03-06T05:47:03.611Z,59.40
2018-03-06T05:49:32.805Z,61.17
2018-03-06T05:52:02.031Z,56.97
2018-03-06T05:54:30.473Z,57.80
2018-03-06T05:57:00.452Z,62.33
2018-03-06T05:59:28.891Z,64.50
2018-03-06T06:01:57.333Z,60.67
2018-03-06T06:04:25.741Z,58.77
2018-03-06T06:06:54.934Z,60.70
2018-03-06T06:09:24.109Z,58.17
2018-03-06T06:11:52.549Z,56.20
2018-03-06T06:14:20.977Z,61.00
2018-03-06T06:16:50.197Z,60.67
2018-03-06T06:19:18.656Z,58.27
2018-03-06T06:21:47.053Z,57.27
2018-03-06T06:24:15.496Z,58.67
2018-03-06T06:26:43.907Z,58.23
2018-03-06T06:29:12.308Z,57.60
2018-03-06T06:31:41.486Z,59.33
2018-03-06T06:34:09.880Z,62.60
2018-03-06T06:36:38.327Z,58.97
2018-03-06T06:39:06.731Z,55.53
2018-03-06T06:41:35.893Z,59.73
2018-03-06T06:44:05.087Z,57.57
2018-03-06T06:46:33.582Z,60.17
2018-03-06T06:49:02.018Z,58.80
2018-03-06T06:51:30.426Z,58.50
2018-03-06T06:53:58.840Z,54.93
2018-03-06T06:56:27.229Z,58.77
2018-03-06T06:58:56.392Z,62.10
2018-03-06T07:01:24.811Z,56.13
2018-03-06T07:03:53.963Z,59.10
2018-03-06T07:06:22.393Z,59.30
2018-03-06T07:08:51.574Z,58.90
2018-03-06T07:11:20.746Z,56.20
2018-03-06T07:13:49.170Z,63.70
2018-03-06T07:16:17.587Z,57.47
2018-03-06T07:18:45.996Z,60.03
2018-03-06T07:21:14.455Z,59.50
2018-03-06T07:23:42.907Z,57.10
2018-03-06T07:26:11.298Z,57.60
2018-03-06T07:28:39.740Z,59.87
2018-03-06T07:31:08.886Z,59.77
2018-03-06T07:33:37.294Z,60.97
2018-03-06T07:36:05.686Z,61.90
2018-03-06T07:38:34.867Z,59.67
2018-03-06T07:41:03.278Z,58.57
2018-03-06T07:43:31.674Z,56.77
2018-03-06T07:46:00.073Z,57.90
2018-03-06T07:48:28.453Z,63.33
2018-03-06T07:50:56.865Z,58.70
2018-03-06T07:53:25.254Z,59.97
2018-03-06T07:55:54.450Z,61.80
2018-03-06T07:58:23.664Z,59.10
2018-03-06T08:00:52.823Z,60.23
2018-03-06T08:03:21.271Z,60.40
2018-03-06T08:05:49.661Z,58.37
2018-03-06T08:08:18.058Z,60.87
2018-03-06T08:10:46.478Z,58.23
2018-03-06T08:13:15.644Z,57.93
2018-03-06T08:15:44.133Z,60.07
2018-03-06T08:18:12.525Z,61.07
2018-03-06T08:20:41.720Z,61.50
2018-03-06T08:23:11.016Z,59.40
2018-03-06T08:25:39.486Z,61.40
2018-03-06T08:28:08.713Z,57.83
2018-03-06T08:30:37.130Z,57.70
2018-03-06T08:33:05.546Z,59.57
2018-03-06T08:35:34.724Z,55.07
2018-03-06T08:38:03.154Z,60.60
2018-03-06T08:40:31.550Z,57.70
2018-03-06T08:43:00.193Z,58.20
2018-03-06T08:45:28.790Z,62.87
2018-03-06T08:47:57.984Z,62.83
2018-03-06T08:50:27.131Z,59.37
2018-03-06T08:52:55.554Z,60.70
2018-03-06T08:55:24.702Z,60.03
2018-03-06T08:57:53.145Z,59.57
2018-03-06T09:00:21.554Z,58.47
2018-03-06T09:02:49.944Z,62.23
2018-03-06T09:05:19.124Z,61.87
2018-03-06T09:07:47.526Z,61.47
2018-03-06T09:10:17.778Z,60.80
2018-03-06T09:12:46.200Z,57.67
2018-03-06T09:15:14.626Z,61.07
2018-03-06T09:17:43.022Z,63.50
2018-03-06T09:20:14.324Z,62.50
2018-03-06T09:22:42.717Z,62.27
2018-03-06T09:25:11.149Z,62.53
2018-03-06T09:27:39.577Z,62.27
2018-03-06T09:30:07.977Z,59.40
2018-03-06T09:32:37.205Z,61.70
2018-03-06T09:35:05.607Z,61.27
2018-03-06T09:37:36.774Z,60.87
2018-03-06T09:40:05.996Z,60.47
2018-03-06T09:42:34.399Z,56.73
2018-03-06T09:45:03.549Z,60.33
2018-03-06T09:47:32.008Z,62.17
2018-03-06T09:50:00.424Z,61.27
2018-03-06T09:52:28.851Z,61.53
2018-03-06T09:54:57.245Z,64.60
2018-03-06T09:57:26.539Z,59.70
2018-03-06T09:59:54.958Z,62.77
2018-03-06T10:02:23.397Z,59.97
2018-03-06T10:04:51.793Z,61.83
2018-03-06T10:07:20.182Z,66.47
2018-03-06T10:09:48.597Z,68.90
2018-03-06T10:12:17.804Z,59.90
2018-03-06T10:14:46.226Z,64.00
2018-03-06T10:17:14.636Z,61.43
2018-03-06T10:19:43.097Z,64.77
2018-03-06T10:22:11.495Z,64.27
2018-03-06T10:24:39.890Z,63.20
2018-03-06T10:27:09.071Z,65.27
2018-03-06T10:29:37.617Z,60.67
2018-03-06T10:32:06.034Z,58.53
2018-03-06T10:34:34.421Z,60.10
2018-03-06T10:37:03.612Z,59.33
2018-03-06T10:39:32.039Z,57.37
2018-03-06T10:42:01.569Z,56.60
2018-03-06T10:44:30.771Z,60.27
2018-03-06T10:46:59.178Z,60.77
2018-03-06T10:49:28.366Z,59.30
2018-03-06T10:51:57.530Z,59.40
2018-03-06T10:54:25.926Z,58.10
2018-03-06T10:56:55.110Z,55.27
2018-03-06T10:59:23.502Z,57.93
2018-03-06T11:02:03.170Z,59.67
2018-03-06T11:04:32.201Z,60.33
2018-03-06T11:07:00.659Z,57.07
2018-03-06T11:09:29.806Z,59.20
2018-03-06T11:11:58.217Z,57.50
2018-03-06T11:14:28.215Z,59.90
2018-03-06T11:16:56.815Z,60.10
2018-03-06T11:19:25.214Z,57.27
2018-03-06T11:21:54.402Z,55.50
2018-03-06T11:24:23.570Z,57.93
2018-03-06T11:26:51.972Z,57.40
2018-03-06T11:29:20.366Z,54.53
2018-03-06T11:31:48.960Z,59.80
2018-03-06T11:34:17.394Z,54.23
2018-03-06T11:36:45.824Z,59.23
2018-03-06T11:39:14.248Z,57.40
2018-03-06T11:41:42.662Z,56.93
2018-03-06T11:44:11.825Z,54.93
2018-03-06T11:46:40.216Z,57.90
2018-03-06T11:49:08.629Z,55.37
2018-03-06T11:51:37.027Z,51.43
2018-03-06T11:54:05.491Z,53.50
2018-03-06T11:56:33.878Z,53.00
2018-03-06T11:59:02.267Z,52.37
2018-03-06T12:01:30.700Z,53.30
2018-03-06T12:03:59.090Z,52.50
2018-03-06T12:06:28.265Z,54.03
2018-03-06T12:08:56.684Z,52.50
2018-03-06T12:11:25.058Z,54.10
2018-03-06T12:13:53.462Z,53.80
2018-03-06T12:16:21.856Z,56.50
2018-03-06T12:18:50.286Z,50.13
2018-03-06T12:21:19.447Z,51.43
2018-03-06T12:23:47.860Z,53.97
2018-03-06T12:26:17.005Z,56.27
2018-03-06T12:28:45.443Z,51.63
2018-03-06T12:31:14.602Z,54.80
2018-03-06T12:33:43.021Z,52.73
2018-03-06T12:36:11.421Z,50.43
2018-03-06T12:38:39.833Z,51.80
2018-03-06T12:41:08.237Z,54.03
2018-03-06T12:43:36.629Z,51.00
2018-03-06T12:46:05.828Z,52.07
2018-03-06T12:48:35.041Z,50.80
2018-03-06T12:51:03.423Z,51.57
2018-03-06T12:53:31.829Z,53.00
2018-03-06T12:56:00.253Z,50.97
2018-03-06T12:58:28.637Z,55.07
2018-03-06T13:00:57.793Z,51.23
2018-03-06T13:03:26.198Z,48.40
2018-03-06T13:05:54.599Z,52.60
2018-03-06T13:08:23.765Z,53.17
2018-03-06T13:10:52.197Z,52.40
2018-03-06T13:13:20.583Z,49.90
2018-03-06T13:15:48.985Z,54.30
2018-03-06T13:18:17.389Z,50.60
2018-03-06T13:20:45.796Z,52.03
2018-03-06T13:23:14.221Z,53.77
2018-03-06T13:25:42.601Z,54.07
2018-03-06T13:28:11.066Z,53.93
2018-03-06T13:30:39.485Z,52.07
2018-03-06T13:33:07.896Z,52.03
2018-03-06T13:35:36.312Z,50.47
2018-03-06T13:38:04.702Z,53.13
2018-03-06T13:40:33.105Z,51.63
2018-03-06T13:43:02.298Z,56.83
2018-03-06T13:45:30.681Z,56.70
2018-03-06T13:47:59.874Z,55.10
2018-03-06T13:50:28.253Z,55.87
2018-03-06T13:52:56.638Z,54.87
2018-03-06T13:55:25.827Z,58.20
2018-03-06T13:57:54.235Z,55.90
2018-03-06T14:00:22.634Z,57.17
2018-03-06T14:02:51.013Z,56.23
2018-03-06T14:05:19.429Z,55.30
2018-03-06T14:07:47.849Z,58.43
2018-03-06T14:10:16.238Z,56.23
2018-03-06T14:12:44.741Z,54.70
2018-03-06T14:15:13.137Z,55.80
2018-03-06T14:17:41.556Z,57.03
2018-03-06T14:20:10.722Z,57.07
2018-03-06T14:22:39.152Z,58.10
2018-03-06T14:25:07.537Z,53.03
2018-03-06T14:27:35.919Z,55.87
2018-03-06T14:30:04.338Z,56.33
2018-03-06T14:32:32.725Z,53.67
2018-03-06T14:35:01.111Z,58.40
2018-03-06T14:37:29.558Z,53.67
2018-03-06T14:39:57.962Z,56.10
2018-03-06T14:42:26.346Z,57.10
2018-03-06T14:44:54.751Z,54.07
2018-03-06T14:47:23.187Z,51.30
2018-03-06T14:49:52.440Z,56.50
2018-03-06T14:52:20.859Z,52.90
2018-03-06T14:54:49.255Z,52.60
2018-03-06T14:57:17.918Z,51.50
2018-03-06T14:59:46.342Z,55.30
2018-03-06T15:02:15.824Z,54.77
2018-03-06T15:04:44.366Z,51.57
2018-03-06T15:07:12.758Z,55.00
2018-03-06T15:09:41.296Z,52.07
2018-03-06T15:12:10.471Z,50.60
2018-03-06T15:14:38.870Z,51.83
2018-03-06T15:17:08.050Z,56.07
2018-03-06T15:19:37.328Z,50.57
2018-03-06T15:22:05.739Z,54.50
2018-03-06T15:24:34.929Z,54.13
2018-03-06T15:27:03.317Z,56.10
2018-03-06T15:29:32.544Z,55.90
2018-03-06T15:32:01.897Z,53.50
2018-03-06T15:34:31.062Z,52.53
2018-03-06T15:36:59.529Z,51.13
2018-03-06T15:39:27.968Z,53.30
2018-03-06T15:41:57.174Z,53.23
2018-03-06T15:44:26.768Z,52.37
2018-03-06T15:46:55.199Z,50.87
2018-03-06T15:49:23.672Z,52.87
2018-03-06T15:51:52.122Z,51.03
2018-03-06T15:54:21.310Z,53.40
2018-03-06T15:56:50.522Z,50.17
2018-03-06T15:59:19.693Z,51.90
2018-03-06T16:01:48.155Z,53.90
2018-03-06T16:04:16.635Z,53.20
2018-03-06T16:06:45.089Z,52.37
2018-03-06T16:09:13.615Z,51.40
2018-03-06T16:11:42.158Z,51.63
2018-03-06T16:14:12.067Z,50.97
2018-03-06T16:16:40.506Z,52.17
2018-03-06T16:19:09.747Z,53.13
2018-03-06T16:21:38.324Z,53.73
2018-03-06T16:24:06.767Z,53.23
2018-03-06T16:26:35.991Z,54.33
2018-03-06T16:29:04.439Z,52.10
2018-03-06T16:31:32.970Z,52.20
2018-03-06T16:34:01.476Z,51.80
2018-03-06T16:36:29.927Z,54.40
2018-03-06T16:38:58.554Z,51.00
2018-03-06T16:41:27.079Z,55.10
2018-03-06T16:43:55.520Z,52.37
2018-03-06T16:46:24.741Z,52.50
2018-03-06T16:48:53.190Z,51.87
2018-03-06T16:51:21.618Z,55.80
2018-03-06T16:53:50.057Z,56.97
2018-03-06T16:56:18.481Z,51.47
2018-03-06T16:58:46.937Z,57.40
2018-03-06T17:01:16.151Z,56.50
2018-03-06T17:03:44.790Z,57.47
2018-03-06T17:06:13.331Z,60.13
2018-03-06T17:08:41.807Z,56.07
2018-03-06T17:11:10.235Z,57.63
2018-03-06T17:13:38.686Z,56.47
2018-03-06T17:16:07.158Z,57.40
2018-03-06T17:18:35.615Z,55.73
2018-03-06T17:21:04.047Z,51.77
2018-03-06T17:23:32.525Z,57.30
2018-03-06T17:26:00.947Z,55.30
2018-03-06T17:28:30.132Z,51.27
2018-03-06T17:30:59.342Z,55.80
2018-03-06T17:33:28.682Z,52.17
2018-03-06T17:35:57.109Z,53.00
2018-03-06T17:38:26.307Z,53.60
2018-03-06T17:40:55.543Z,54.20
2018-03-06T17:43:23.977Z,51.43
2018-03-06T17:45:52.419Z,57.63
2018-03-06T17:48:20.859Z,54.50
2018-03-06T17:50:50.132Z,54.80
2018-03-06T17:53:18.579Z,55.50
2018-03-06T17:55:47.092Z,54.50
2018-03-06T17:58:15.519Z,57.30
2018-03-06T18:00:44.070Z,60.23
2018-03-06T18:03:13.290Z,56.10
2018-03-06T18:05:41.723Z,55.73
2018-03-06T18:08:10.198Z,57.10
2018-03-06T18:10:38.618Z,56.73
2018-03-06T18:13:07.801Z,55.43
2018-03-06T18:15:37.094Z,57.00
2018-03-06T18:18:05.553Z,55.10
2018-03-06T18:20:34.028Z,56.20
2018-03-06T18:23:02.491Z,51.70
2018-03-06T18:25:30.910Z,46.73
2018-03-06T18:27:59.461Z,42.90
2018-03-06T18:30:27.919Z,41.20
2018-03-06T18:32:56.383Z,37.10
2018-03-06T18:35:25.582Z,32.23
2018-03-06T18:37:54.119Z,32.23
2018-03-06T18:40:22.555Z,30.60
2018-03-06T18:42:51.018Z,30.00
2018-03-06T18:45:20.219Z,29.10
2018-03-06T18:47:49.528Z,30.87
2018-03-06T18:50:35.761Z,31.03
2018-03-06T18:53:04.235Z,28.40
2018-03-06T18:55:32.699Z,28.40
2018-03-06T18:58:01.135Z,30.70
2018-03-06T19:04:14.224Z,32.63
2018-03-06T19:07:04.281Z,30.27
2018-03-06T19:09:31.889Z,33.33
2018-03-06T19:12:00.247Z,33.53
2018-03-06T19:14:30.345Z,38.57
2018-03-06T19:16:57.939Z,41.17
2018-03-06T19:19:25.533Z,39.87
2018-03-06T19:21:53.141Z,37.07
2018-03-06T19:24:20.750Z,36.67
2018-03-06T19:26:49.165Z,37.57
2018-03-06T19:29:16.777Z,37.30
2018-03-06T19:31:44.437Z,36.00
2018-03-06T19:34:12.785Z,34.77
2018-03-06T19:36:40.359Z,36.27
2018-03-06T19:39:07.940Z,37.60
2018-03-06T19:41:36.261Z,37.90
2018-03-06T19:44:03.894Z,33.83
2018-03-06T19:46:31.443Z,36.53
2018-03-06T19:48:59.793Z,35.67
2018-03-06T19:51:27.356Z,39.07
2018-03-06T19:53:54.966Z,35.17
2018-03-06T19:56:22.528Z,36.87
2018-03-06T19:58:50.113Z,36.40
2018-03-06T20:01:17.721Z,35.57
2018-03-06T20:03:46.056Z,37.50
2018-03-06T20:06:13.631Z,38.37
2018-03-06T20:08:41.207Z,36.50
2018-03-06T20:11:08.781Z,37.00
2018-03-06T20:13:37.127Z,38.40
2018-03-06T20:16:04.720Z,36.13
2018-03-06T20:18:33.037Z,38.43
2018-03-06T20:21:00.598Z,37.20
2018-03-06T20:23:28.193Z,40.50
2018-03-06T20:25:59.606Z,37.47
2018-03-06T20:28:27.192Z,40.70
2018-03-06T20:31:00.521Z,37.60
2018-03-06T20:33:28.896Z,39.10
2018-03-06T20:35:57.240Z,35.97
2018-03-06T20:38:30.523Z,39.93
2018-03-06T20:40:58.127Z,39.47
2018-03-06T20:43:25.709Z,39.60
2018-03-06T20:45:59.073Z,40.30
2018-03-06T20:48:26.637Z,41.40
2018-03-06T20:50:54.209Z,39.50
2018-03-06T20:53:28.180Z,43.00
2018-03-06T20:55:55.814Z,42.20
2018-03-06T20:58:23.368Z,43.77
2018-03-06T21:00:50.925Z,42.80
2018-03-06T21:03:18.527Z,49.00
2018-03-06T21:05:46.126Z,47.50
2018-03-06T21:08:14.472Z,50.30
2018-03-06T21:10:42.024Z,49.20
2018-03-06T21:13:09.612Z,48.83
2018-03-06T21:15:37.171Z,48.10
2018-03-06T21:18:04.740Z,46.93
2018-03-06T21:20:33.087Z,42.63
2018-03-06T21:23:00.660Z,43.77
2018-03-06T21:25:28.238Z,45.20
2018-03-06T21:27:56.561Z,40.50
2018-03-06T21:30:24.112Z,43.07
2018-03-06T21:32:51.707Z,38.90
2018-03-06T21:35:19.281Z,41.07
2018-03-06T21:37:46.852Z,41.53
2018-03-06T21:40:14.442Z,38.07
2018-03-06T21:42:42.020Z,36.87
2018-03-06T21:45:09.580Z,33.67
2018-03-06T21:47:37.157Z,35.33
2018-03-06T21:50:04.716Z,36.60
2018-03-06T21:52:32.271Z,36.27
2018-03-06T21:54:59.868Z,35.90
2018-03-06T21:57:28.192Z,36.03
2018-03-06T21:59:55.778Z,39.73
2018-03-06T22:02:24.100Z,36.80
2018-03-06T22:04:52.444Z,34.77
2018-03-06T22:07:19.992Z,33.87
2018-03-06T22:09:47.584Z,35.80
2018-03-06T22:12:15.908Z,36.60
2018-03-06T22:14:43.489Z,38.00
2018-03-06T22:17:11.048Z,39.00
2018-03-06T22:19:38.600Z,39.77
2018-03-06T22:22:06.189Z,36.80
2018-03-06T22:24:33.753Z,39.63
2018-03-06T22:27:01.316Z,41.20
2018-03-06T22:29:28.907Z,38.90
2018-03-06T22:31:56.460Z,37.97
2018-03-06T22:34:24.014Z,40.77
2018-03-06T22:36:52.363Z,41.17
2018-03-06T22:39:20.545Z,41.93
2018-03-06T22:41:48.257Z,40.37
2018-03-06T22:44:15.814Z,41.03
2018-03-06T22:46:43.392Z,43.57
2018-03-06T22:49:10.947Z,42.53
2018-03-06T22:51:38.525Z,43.20
2018-03-06T22:54:06.072Z,40.70
2018-03-06T22:56:33.654Z,44.40
2018-03-06T22:59:01.220Z,39.77
2018-03-06T23:01:28.796Z,41.90
2018-03-06T23:03:57.158Z,40.60
2018-03-06T23:06:24.716Z,39.27
2018-03-06T23:08:52.297Z,36.47
2018-03-06T23:11:20.624Z,40.27
2018-03-06T23:13:48.180Z,40.90
2018-03-06T23:16:15.773Z,34.60
2018-03-06T23:18:43.339Z,37.57
2018-03-06T23:21:10.904Z,39.60
2018-03-06T23:23:38.494Z,38.70
2018-03-06T23:26:06.060Z,41.03
2018-03-06T23:28:33.646Z,38.33
2018-03-06T23:31:01.237Z,41.17
2018-03-06T23:33:28.804Z,40.97
2018-03-06T23:35:56.385Z,46.67
2018-03-06T23:38:23.963Z,44.07
2018-03-06T23:40:51.540Z,45.33
2018-03-06T23:43:19.167Z,45.50
2018-03-06T23:45:46.728Z,43.93
2018-03-06T23:48:14.304Z,46.57
2018-03-06T23:50:41.889Z,45.87
2018-03-06T23:53:09.452Z,43.40
2018-03-06T23:55:37.017Z,46.47
2018-03-06T23:58:04.605Z,46.17
